createdAt,value
2018-08-30T00:00:03.722Z,1.57
2018-08-30T00:02:32.650Z,1.40
2018-08-30T00:05:01.424Z,1.77
2018-08-30T00:07:31.043Z,1.50
2018-08-30T00:10:00.409Z,1.90
2018-08-30T00:12:29.640Z,1.27
2018-08-30T00:14:58.644Z,1.30
2018-08-30T00:17:27.391Z,1.70
2018-08-30T00:19:56.049Z,1.47
2018-08-30T00:22:25.656Z,1.20
2018-08-30T00:24:54.576Z,1.20
2018-08-30T00:27:23.352Z,1.60
2018-08-30T00:29:52.832Z,1.27
2018-08-30T00:32:21.602Z,1.37
2018-08-30T00:34:51.490Z,1.30
2018-08-30T00:37:20.833Z,1.83
2018-08-30T00:39:49.691Z,1.60
2018-08-30T00:42:18.674Z,1.80
2018-08-30T00:44:47.345Z,1.43
2018-08-30T00:47:20.904Z,1.50
2018-08-30T00:49:50.660Z,1.50
2018-08-30T00:52:22.392Z,1.40
2018-08-30T00:54:53.270Z,1.63
2018-08-30T00:57:22.054Z,1.30
2018-08-30T00:59:51.391Z,1.50
2018-08-30T01:02:20.773Z,1.30
2018-08-30T01:04:49.541Z,1.30
2018-08-30T01:07:18.201Z,1.33
2018-08-30T01:09:47.004Z,1.30
2018-08-30T01:12:15.748Z,1.30
2018-08-30T01:14:44.489Z,1.50
2018-08-30T01:17:13.434Z,1.30
2018-08-30T01:19:42.252Z,1.47
2018-08-30T01:22:11.263Z,1.70
2018-08-30T01:24:39.993Z,1.60
2018-08-30T01:27:09.135Z,1.60
2018-08-30T01:29:38.016Z,1.30
2018-08-30T01:32:07.232Z,1.40
2018-08-30T01:34:36.132Z,1.40
2018-08-30T01:37:05.012Z,1.40
2018-08-30T01:39:33.859Z,1.70
2018-08-30T01:42:02.617Z,1.63
2018-08-30T01:44:32.463Z,1.40
2018-08-30T01:47:01.352Z,2.00
2018-08-30T01:49:31.784Z,1.40
2018-08-30T01:52:00.520Z,1.93
2018-08-30T01:54:29.453Z,1.67
2018-08-30T01:56:58.399Z,1.60
2018-08-30T01:59:27.915Z,1.30
2018-08-30T02:01:56.643Z,1.33
2018-08-30T02:04:26.034Z,1.50
2018-08-30T02:06:54.809Z,1.60
2018-08-30T02:09:24.017Z,1.53
2018-08-30T02:11:53.809Z,1.63
2018-08-30T02:14:22.588Z,1.30
2018-08-30T02:16:53.047Z,1.40
2018-08-30T02:19:22.134Z,1.67
2018-08-30T02:21:51.046Z,1.40
2018-08-30T02:24:19.892Z,1.70
2018-08-30T02:26:49.003Z,1.30
2018-08-30T02:29:17.788Z,1.30
2018-08-30T02:31:47.235Z,1.20
2018-08-30T02:34:17.055Z,1.90
2018-08-30T02:36:45.896Z,1.90
2018-08-30T02:39:14.800Z,1.33
2018-08-30T02:41:43.591Z,1.50
2018-08-30T02:44:12.390Z,1.20
2018-08-30T02:46:41.107Z,1.63
2018-08-30T02:49:10.656Z,1.00
2018-08-30T02:51:40.583Z,2.03
2018-08-30T02:54:13.149Z,1.30
2018-08-30T02:56:42.584Z,1.57
2018-08-30T02:59:13.223Z,1.60
2018-08-30T03:01:41.920Z,1.20
2018-08-30T03:04:10.604Z,1.43
2018-08-30T03:06:39.408Z,1.23
2018-08-30T03:09:09.456Z,1.43
2018-08-30T03:11:38.264Z,1.70
2018-08-30T03:14:07.692Z,1.30
2018-08-30T03:16:37.005Z,1.50
2018-08-30T03:19:06.554Z,1.70
2018-08-30T03:21:35.463Z,1.60
2018-08-30T03:24:04.309Z,1.37
2018-08-30T03:26:33.196Z,1.40
2018-08-30T03:29:02.963Z,1.77
2018-08-30T03:31:31.844Z,1.50
2018-08-30T03:34:02.198Z,1.30
2018-08-30T03:36:31.028Z,1.33
2018-08-30T03:39:00.392Z,1.73
2018-08-30T03:41:29.901Z,1.53
2018-08-30T03:43:59.280Z,1.20
2018-08-30T03:46:28.007Z,1.13
2018-08-30T03:48:57.006Z,1.40
2018-08-30T03:51:25.996Z,1.37
2018-08-30T03:53:54.996Z,1.33
2018-08-30T03:56:24.387Z,1.60
2018-08-30T03:58:53.964Z,1.40
2018-08-30T04:01:22.792Z,1.23
2018-08-30T04:03:51.688Z,1.30
2018-08-30T04:06:20.998Z,1.40
2018-08-30T04:08:50.387Z,1.30
2018-08-30T04:11:19.784Z,1.47
2018-08-30T04:13:48.737Z,1.57
2018-08-30T04:16:18.066Z,2.00
2018-08-30T04:18:51.339Z,1.33
2018-08-30T04:21:20.820Z,1.53
2018-08-30T04:23:49.719Z,1.53
2018-08-30T04:26:19.623Z,1.20
2018-08-30T04:28:49.105Z,1.57
2018-08-30T04:31:18.518Z,1.90
2018-08-30T04:33:47.269Z,1.40
2018-08-30T04:36:16.091Z,1.43
2018-08-30T04:38:45.544Z,1.70
2018-08-30T04:41:14.331Z,1.37
2018-08-30T04:43:43.065Z,1.70
2018-08-30T04:46:12.466Z,1.40
2018-08-30T04:48:41.933Z,1.40
2018-08-30T04:51:11.760Z,1.40
2018-08-30T04:53:41.139Z,1.50
2018-08-30T04:56:09.876Z,1.50
2018-08-30T04:58:40.352Z,1.47
2018-08-30T05:01:09.772Z,1.40
2018-08-30T05:03:39.832Z,1.83
2018-08-30T05:06:08.711Z,1.70
2018-08-30T05:08:37.588Z,1.30
2018-08-30T05:11:06.555Z,1.80
2018-08-30T05:13:35.287Z,1.57
2018-08-30T05:16:04.081Z,1.43
2018-08-30T05:18:32.829Z,1.63
2018-08-30T05:21:01.540Z,1.50
2018-08-30T05:23:30.720Z,1.47
2018-08-30T05:25:59.511Z,1.53
2018-08-30T05:28:28.828Z,1.57
2018-08-30T05:30:57.679Z,1.60
2018-08-30T05:33:27.206Z,1.70
2018-08-30T05:35:56.623Z,1.43
2018-08-30T05:38:25.389Z,1.63
2018-08-30T05:40:54.939Z,1.20
2018-08-30T05:43:24.204Z,1.47
2018-08-30T05:45:53.743Z,1.37
2018-08-30T05:48:22.637Z,1.80
2018-08-30T05:50:51.563Z,1.80
2018-08-30T05:53:20.420Z,2.00
2018-08-30T05:55:49.240Z,1.60
2018-08-30T05:58:18.101Z,1.50
2018-08-30T06:00:47.044Z,1.80
2018-08-30T06:03:16.395Z,1.90
2018-08-30T06:05:46.478Z,1.57
2018-08-30T06:08:15.942Z,1.70
2018-08-30T06:10:44.982Z,1.60
2018-08-30T06:13:13.806Z,1.83
2018-08-30T06:15:42.601Z,2.10
2018-08-30T06:18:13.861Z,1.90
2018-08-30T06:20:43.211Z,2.00
2018-08-30T06:23:12.868Z,1.70
2018-08-30T06:25:42.467Z,1.80
2018-08-30T06:28:12.379Z,1.70
2018-08-30T06:30:41.275Z,1.90
2018-08-30T06:33:10.899Z,1.77
2018-08-30T06:35:40.608Z,2.30
2018-08-30T06:38:09.376Z,1.80
2018-08-30T06:40:38.139Z,2.30
2018-08-30T06:43:06.861Z,2.30
2018-08-30T06:45:35.584Z,2.17
2018-08-30T06:48:04.372Z,1.87
2018-08-30T06:50:33.108Z,1.77
2018-08-30T06:53:01.858Z,2.10
2018-08-30T06:55:30.616Z,2.00
2018-08-30T06:57:59.321Z,2.10
2018-08-30T07:00:27.992Z,1.90
2018-08-30T07:02:56.677Z,2.17
2018-08-30T07:05:25.448Z,1.70
2018-08-30T07:07:54.136Z,2.27
2018-08-30T07:10:22.894Z,1.87
2018-08-30T07:12:51.603Z,1.93
2018-08-30T07:15:20.302Z,1.83
2018-08-30T07:17:48.975Z,1.77
2018-08-30T07:20:17.699Z,1.83
2018-08-30T07:22:46.348Z,1.63
2018-08-30T07:25:15.016Z,1.60
2018-08-30T07:27:43.732Z,2.03
2018-08-30T07:30:14.237Z,2.00
2018-08-30T07:32:43.196Z,2.13
2018-08-30T07:35:12.053Z,2.40
2018-08-30T07:37:40.749Z,1.90
2018-08-30T07:40:09.539Z,1.93
2018-08-30T07:42:38.262Z,1.70
2018-08-30T07:45:07.035Z,2.50
2018-08-30T07:47:35.735Z,2.13
2018-08-30T07:50:04.518Z,2.20
2018-08-30T07:52:33.277Z,2.40
2018-08-30T07:55:02.003Z,2.20
2018-08-30T07:57:30.782Z,2.10
2018-08-30T07:59:59.425Z,2.30
2018-08-30T08:02:28.154Z,2.40
2018-08-30T08:04:57.028Z,2.23
2018-08-30T08:07:25.817Z,2.30
2018-08-30T08:09:54.722Z,2.40
2018-08-30T08:12:23.465Z,1.97
2018-08-30T08:14:52.152Z,2.40
2018-08-30T08:17:20.942Z,2.30
2018-08-30T08:19:49.604Z,2.50
2018-08-30T08:22:18.389Z,1.80
2018-08-30T08:24:47.856Z,2.37
2018-08-30T08:27:16.643Z,2.30
2018-08-30T08:29:45.716Z,2.17
2018-08-30T08:32:14.477Z,2.30
2018-08-30T08:34:43.396Z,2.17
2018-08-30T08:37:12.247Z,2.00
2018-08-30T08:39:41.806Z,1.90
2018-08-30T08:42:10.603Z,2.70
2018-08-30T08:44:39.331Z,2.40
2018-08-30T08:47:08.377Z,2.40
2018-08-30T08:49:37.770Z,2.20
2018-08-30T08:52:06.703Z,2.13
2018-08-30T08:54:35.602Z,2.40
2018-08-30T08:57:04.320Z,3.00
2018-08-30T08:59:33.048Z,2.70
2018-08-30T09:02:01.827Z,2.63
2018-08-30T09:04:30.612Z,2.33
2018-08-30T09:06:59.478Z,2.40
2018-08-30T09:09:28.232Z,2.50
2018-08-30T09:11:57.053Z,2.83
2018-08-30T09:14:25.965Z,2.60
2018-08-30T09:16:54.760Z,2.70
2018-08-30T09:19:23.615Z,2.97
2018-08-30T09:21:52.406Z,3.57
2018-08-30T09:24:21.220Z,2.70
2018-08-30T09:26:50.130Z,2.77
2018-08-30T09:29:18.953Z,2.90
2018-08-30T09:31:47.662Z,2.30
2018-08-30T09:34:16.375Z,2.63
2018-08-30T09:36:45.076Z,2.50
2018-08-30T09:39:13.791Z,3.27
2018-08-30T09:41:42.453Z,2.80
2018-08-30T09:44:11.159Z,2.43
2018-08-30T09:46:39.851Z,2.27
2018-08-30T09:49:08.667Z,2.10
2018-08-30T09:51:37.399Z,2.20
2018-08-30T09:54:06.249Z,1.97
2018-08-30T09:56:34.980Z,2.00
2018-08-30T09:59:03.691Z,1.67
2018-08-30T10:01:37.496Z,1.97
2018-08-30T10:04:06.213Z,1.43
2018-08-30T10:06:34.945Z,1.50
2018-08-30T10:09:03.835Z,1.10
2018-08-30T10:11:32.513Z,1.50
2018-08-30T10:14:01.195Z,1.43
2018-08-30T10:16:29.857Z,1.30
2018-08-30T10:18:58.570Z,1.30
2018-08-30T10:21:27.453Z,1.77
2018-08-30T10:23:56.153Z,1.27
2018-08-30T10:26:24.923Z,1.67
2018-08-30T10:28:53.635Z,1.10
2018-08-30T10:31:22.638Z,1.33
2018-08-30T10:33:51.385Z,1.40
2018-08-30T10:36:20.050Z,1.53
2018-08-30T10:38:48.709Z,1.40
2018-08-30T10:41:17.360Z,1.67
2018-08-30T10:43:46.054Z,1.50
2018-08-30T10:46:14.772Z,1.33
2018-08-30T10:48:43.507Z,1.50
2018-08-30T10:51:12.228Z,1.20
2018-08-30T10:53:40.909Z,1.03
2018-08-30T10:56:09.694Z,1.50
2018-08-30T10:58:38.481Z,1.07
2018-08-30T11:01:07.222Z,1.60
2018-08-30T11:03:36.058Z,1.50
2018-08-30T11:06:04.919Z,1.10
2018-08-30T11:08:33.599Z,1.13
2018-08-30T11:11:02.272Z,1.13
2018-08-30T11:13:31.008Z,1.47
2018-08-30T11:15:59.696Z,1.20
2018-08-30T11:18:28.386Z,1.43
2018-08-30T11:20:57.100Z,1.43
2018-08-30T11:23:25.775Z,1.50
2018-08-30T11:25:54.436Z,1.10
2018-08-30T11:28:23.132Z,1.00
2018-08-30T11:30:51.811Z,1.23
2018-08-30T11:33:20.488Z,1.10
2018-08-30T11:35:49.180Z,1.30
2018-08-30T11:38:17.909Z,1.20
2018-08-30T11:40:46.596Z,1.53
2018-08-30T11:43:15.447Z,1.33
2018-08-30T11:45:44.169Z,1.30
2018-08-30T11:48:12.861Z,1.47
2018-08-30T11:50:41.579Z,1.40
2018-08-30T11:53:10.296Z,1.20
2018-08-30T11:55:38.996Z,1.80
2018-08-30T11:58:07.719Z,1.30
2018-08-30T12:00:36.438Z,1.30
2018-08-30T12:03:05.228Z,1.10
2018-08-30T12:05:34.013Z,1.03
2018-08-30T12:08:02.853Z,1.23
2018-08-30T12:10:31.689Z,1.50
2018-08-30T12:13:00.431Z,1.10
2018-08-30T12:15:29.273Z,1.27
2018-08-30T12:17:58.012Z,1.40
2018-08-30T12:20:26.755Z,1.10
2018-08-30T12:22:55.465Z,1.10
2018-08-30T12:25:24.289Z,1.03
2018-08-30T12:27:52.997Z,1.10
2018-08-30T12:30:22.001Z,1.20
2018-08-30T12:32:50.737Z,1.30
2018-08-30T12:35:19.514Z,1.03
2018-08-30T12:37:48.406Z,1.27
2018-08-30T12:40:17.171Z,1.37
2018-08-30T12:42:45.803Z,1.27
2018-08-30T12:45:14.579Z,1.20
2018-08-30T12:47:43.313Z,1.33
2018-08-30T12:50:12.353Z,1.20
2018-08-30T12:52:41.032Z,1.13
2018-08-30T12:55:09.916Z,1.60
2018-08-30T12:57:38.643Z,2.20
2018-08-30T13:00:07.639Z,1.30
2018-08-30T13:02:36.496Z,1.10
2018-08-30T13:05:05.277Z,1.23
2018-08-30T13:07:34.059Z,1.13
2018-08-30T13:10:03.022Z,1.47
2018-08-30T13:12:31.728Z,1.40
2018-08-30T13:15:00.624Z,1.27
2018-08-30T13:17:29.205Z,1.37
2018-08-30T13:19:57.884Z,1.20
2018-08-30T13:22:26.479Z,1.17
2018-08-30T13:24:55.795Z,1.20
2018-08-30T13:27:24.649Z,1.10
2018-08-30T13:29:53.339Z,1.43
2018-08-30T13:32:22.199Z,1.70
2018-08-30T13:34:51.088Z,1.57
2018-08-30T13:37:19.633Z,1.50
2018-08-30T13:39:48.340Z,1.40
2018-08-30T13:42:17.164Z,1.57
2018-08-30T13:44:45.867Z,1.77
2018-08-30T13:47:14.489Z,1.30
2018-08-30T13:49:43.051Z,1.40
2018-08-30T13:52:12.646Z,1.33
2018-08-30T13:54:41.458Z,1.70
2018-08-30T13:57:10.267Z,1.20
2018-08-30T13:59:39.162Z,1.60
2018-08-30T14:02:07.358Z,1.50
2018-08-30T14:04:36.159Z,1.50
2018-08-30T14:07:04.961Z,1.50
2018-08-30T14:09:33.630Z,1.40
2018-08-30T14:12:02.695Z,1.20
2018-08-30T14:14:31.272Z,1.00
2018-08-30T14:16:59.772Z,1.40
2018-08-30T14:19:28.460Z,1.20
2018-08-30T14:21:57.208Z,1.07
2018-08-30T14:24:25.928Z,1.60
2018-08-30T14:26:54.841Z,1.20
2018-08-30T14:29:23.403Z,1.40
2018-08-30T14:31:52.112Z,1.70
2018-08-30T14:34:21.003Z,1.60
2018-08-30T14:36:49.804Z,1.40
2018-08-30T14:39:18.634Z,1.37
2018-08-30T14:41:47.262Z,1.47
2018-08-30T14:44:15.967Z,1.60
2018-08-30T14:46:44.692Z,1.60
2018-08-30T14:49:13.454Z,1.40
2018-08-30T14:51:42.265Z,1.30
2018-08-30T14:54:10.971Z,1.20
2018-08-30T14:56:39.685Z,1.40
2018-08-30T14:59:08.568Z,1.50
2018-08-30T15:01:37.160Z,1.30
2018-08-30T15:04:05.949Z,1.20
2018-08-30T15:06:34.664Z,1.40
2018-08-30T15:09:03.490Z,1.37
2018-08-30T15:11:32.287Z,1.30
2018-08-30T15:14:01.001Z,1.37
2018-08-30T15:16:29.656Z,1.50
2018-08-30T15:18:58.336Z,1.40
2018-08-30T15:21:27.083Z,1.50
2018-08-30T15:23:55.833Z,1.60
2018-08-30T15:26:24.565Z,1.70
2018-08-30T15:28:53.248Z,1.30
2018-08-30T15:31:22.260Z,1.20
2018-08-30T15:33:51.055Z,1.30
2018-08-30T15:36:20.059Z,1.80
2018-08-30T15:38:48.850Z,1.43
2018-08-30T15:41:17.637Z,1.40
2018-08-30T15:43:46.621Z,1.27
2018-08-30T15:46:15.387Z,1.40
2018-08-30T15:48:44.175Z,1.47
2018-08-30T15:51:12.980Z,1.40
2018-08-30T15:53:41.663Z,1.33
2018-08-30T15:56:10.522Z,1.80
2018-08-30T15:58:39.233Z,1.30
2018-08-30T16:01:08.071Z,1.47
2018-08-30T16:03:36.888Z,1.60
2018-08-30T16:06:06.014Z,1.47
2018-08-30T16:08:34.830Z,1.63
2018-08-30T16:11:03.541Z,1.10
2018-08-30T16:13:32.473Z,1.20
2018-08-30T16:16:01.927Z,1.53
2018-08-30T16:18:31.352Z,1.17
2018-08-30T16:20:59.944Z,1.30
2018-08-30T16:23:30.065Z,1.37
2018-08-30T16:25:59.004Z,1.33
2018-08-30T16:28:28.835Z,1.30
2018-08-30T16:30:57.688Z,1.50
2018-08-30T16:33:26.429Z,1.20
2018-08-30T16:35:55.215Z,1.60
2018-08-30T16:38:24.080Z,1.90
2018-08-30T16:40:52.822Z,1.97
2018-08-30T16:43:21.606Z,1.20
2018-08-30T16:45:50.603Z,1.90
2018-08-30T16:48:19.516Z,1.67
2018-08-30T16:50:48.212Z,1.40
2018-08-30T16:53:16.965Z,1.10
2018-08-30T16:55:45.681Z,1.40
2018-08-30T16:58:14.397Z,1.33
2018-08-30T17:00:43.157Z,1.50
2018-08-30T17:03:11.887Z,1.60
2018-08-30T17:05:40.597Z,1.43
2018-08-30T17:08:09.293Z,1.77
2018-08-30T17:10:38.000Z,1.80
2018-08-30T17:13:06.909Z,2.50
2018-08-30T17:15:35.612Z,1.73
2018-08-30T17:18:04.781Z,1.50
2018-08-30T17:20:37.592Z,1.53
2018-08-30T17:23:06.424Z,1.40
2018-08-30T17:25:35.493Z,1.40
2018-08-30T17:28:04.300Z,1.43
2018-08-30T17:30:33.259Z,1.70
2018-08-30T17:33:02.003Z,1.70
2018-08-30T17:35:30.744Z,1.43
2018-08-30T17:37:59.503Z,1.10
2018-08-30T17:40:28.385Z,1.37
2018-08-30T17:42:57.187Z,1.20
2018-08-30T17:45:27.152Z,1.30
2018-08-30T17:47:55.761Z,1.20
2018-08-30T17:50:24.654Z,1.40
2018-08-30T17:52:53.502Z,1.60
2018-08-30T17:55:22.247Z,1.90
2018-08-30T17:57:51.090Z,1.50
2018-08-30T18:00:19.850Z,1.47
2018-08-30T18:02:48.691Z,1.57
2018-08-30T18:05:17.725Z,1.70
2018-08-30T18:07:46.915Z,1.67
2018-08-30T18:10:15.871Z,1.70
2018-08-30T18:12:44.600Z,1.10
2018-08-30T18:15:14.828Z,1.27
2018-08-30T18:17:44.099Z,1.60
2018-08-30T18:20:12.896Z,1.40
2018-08-30T18:22:42.473Z,1.57
2018-08-30T18:25:11.453Z,1.40
2018-08-30T18:27:40.185Z,2.03
2018-08-30T18:30:10.110Z,2.57
2018-08-30T18:32:38.965Z,1.30
2018-08-30T18:35:09.170Z,1.60
2018-08-30T18:37:38.226Z,1.77
2018-08-30T18:40:07.945Z,4.70
2018-08-30T18:42:36.680Z,2.47
2018-08-30T18:45:05.459Z,2.50
2018-08-30T18:47:34.199Z,2.20
2018-08-30T18:50:03.028Z,2.27
2018-08-30T18:52:32.073Z,3.20
2018-08-30T18:55:00.754Z,3.60
2018-08-30T18:57:29.394Z,2.23
2018-08-30T18:59:58.115Z,4.23
2018-08-30T19:02:26.796Z,2.83
2018-08-30T19:04:55.524Z,4.13
2018-08-30T19:07:24.555Z,5.20
2018-08-30T19:09:53.370Z,7.10
2018-08-30T19:12:22.118Z,5.50
2018-08-30T19:14:50.823Z,6.10
2018-08-30T19:17:24.575Z,8.53
2018-08-30T19:19:53.276Z,9.90
2018-08-30T19:22:21.992Z,7.00
2018-08-30T19:24:55.943Z,6.30
2018-08-30T19:27:24.636Z,5.70
2018-08-30T19:29:58.488Z,6.33
2018-08-30T19:32:27.233Z,6.90
2018-08-30T19:35:00.105Z,6.07
2018-08-30T19:37:28.895Z,5.03
2018-08-30T19:39:57.720Z,4.87
2018-08-30T19:42:28.867Z,4.80
2018-08-30T19:44:57.630Z,4.97
2018-08-30T19:47:26.374Z,4.43
2018-08-30T19:49:55.091Z,5.10
2018-08-30T19:52:23.842Z,3.90
2018-08-30T19:54:52.784Z,4.10
2018-08-30T19:57:21.622Z,4.13
2018-08-30T19:59:50.319Z,4.77
2018-08-30T20:02:19.069Z,5.10
2018-08-30T20:04:47.776Z,5.50
2018-08-30T20:07:16.444Z,6.00
2018-08-30T20:09:45.260Z,5.60
2018-08-30T20:12:13.980Z,5.73
2018-08-30T20:14:43.452Z,4.93
2018-08-30T20:17:12.169Z,5.20
2018-08-30T20:19:40.843Z,5.00
2018-08-30T20:22:11.304Z,5.67
2018-08-30T20:24:40.040Z,5.33
2018-08-30T20:27:09.214Z,4.93
2018-08-30T20:29:38.267Z,3.70
2018-08-30T20:32:07.276Z,3.47
2018-08-30T20:34:36.090Z,3.57
2018-08-30T20:37:04.888Z,4.80
2018-08-30T20:39:33.691Z,4.90
2018-08-30T20:42:02.440Z,4.60
2018-08-30T20:44:31.215Z,4.90
2018-08-30T20:46:59.984Z,5.00
2018-08-30T20:49:28.728Z,4.30
2018-08-30T20:51:57.426Z,4.00
2018-08-30T20:54:26.230Z,4.70
2018-08-30T20:56:55.119Z,4.33
2018-08-30T20:59:24.990Z,3.00
2018-08-30T21:01:53.830Z,2.47
2018-08-30T21:04:22.544Z,2.13
2018-08-30T21:06:51.306Z,2.03
2018-08-30T21:09:20.368Z,3.27
2018-08-30T21:11:49.102Z,3.37
2018-08-30T21:14:17.860Z,3.63
2018-08-30T21:16:46.591Z,2.63
2018-08-30T21:19:15.460Z,3.30
2018-08-30T21:21:44.313Z,3.33
2018-08-30T21:24:13.056Z,2.90
2018-08-30T21:26:41.763Z,2.77
2018-08-30T21:29:10.529Z,3.27
2018-08-30T21:31:39.440Z,3.40
2018-08-30T21:34:08.171Z,3.13
2018-08-30T21:36:37.104Z,2.97
2018-08-30T21:39:07.679Z,2.93
2018-08-30T21:41:36.451Z,2.90
2018-08-30T21:44:05.558Z,2.77
2018-08-30T21:46:34.583Z,2.77
2018-08-30T21:49:03.552Z,2.50
2018-08-30T21:51:32.292Z,2.40
2018-08-30T21:54:01.019Z,2.90
2018-08-30T21:56:29.691Z,3.00
2018-08-30T21:58:58.420Z,2.53
2018-08-30T22:01:27.220Z,2.20
2018-08-30T22:03:55.940Z,2.20
2018-08-30T22:06:24.831Z,2.40
2018-08-30T22:08:53.539Z,2.40
2018-08-30T22:11:22.312Z,2.07
2018-08-30T22:13:50.993Z,2.13
2018-08-30T22:16:19.698Z,1.90
2018-08-30T22:18:48.422Z,2.20
2018-08-30T22:21:17.087Z,2.50
2018-08-30T22:23:45.781Z,2.53
2018-08-30T22:26:14.674Z,2.60
2018-08-30T22:28:43.367Z,2.70
2018-08-30T22:31:12.108Z,3.00
2018-08-30T22:33:40.786Z,2.90
2018-08-30T22:36:09.480Z,2.70
2018-08-30T22:38:38.168Z,2.77
2018-08-30T22:41:07.040Z,2.70
2018-08-30T22:43:35.705Z,2.50
2018-08-30T22:46:04.382Z,2.67
2018-08-30T22:48:33.109Z,2.60
2018-08-30T22:51:01.813Z,2.63
2018-08-30T22:53:30.507Z,2.40
2018-08-30T22:55:59.161Z,2.60
2018-08-30T22:58:27.837Z,2.57
2018-08-30T23:00:56.521Z,2.43
2018-08-30T23:03:25.156Z,2.27
2018-08-30T23:05:53.919Z,2.17
2018-08-30T23:08:22.565Z,2.27
2018-08-30T23:10:51.307Z,2.30
2018-08-30T23:13:20.059Z,2.37
2018-08-30T23:15:48.802Z,2.30
2018-08-30T23:18:17.476Z,2.20
2018-08-30T23:20:46.180Z,2.17
2018-08-30T23:23:14.832Z,1.90
2018-08-30T23:25:43.531Z,1.70
2018-08-30T23:28:12.272Z,2.30
2018-08-30T23:30:40.897Z,2.20
2018-08-30T23:33:09.548Z,2.03
2018-08-30T23:35:38.313Z,1.97
2018-08-30T23:38:07.472Z,2.30
2018-08-30T23:40:36.193Z,2.40
2018-08-30T23:43:04.878Z,2.40
2018-08-30T23:45:33.567Z,2.50
2018-08-30T23:48:02.355Z,2.30
2018-08-30T23:50:31.028Z,2.00
2018-08-30T23:52:59.755Z,2.10
2018-08-30T23:55:28.455Z,2.20
2018-08-30T23:58:08.028Z,2.43
